Time;durP1;ratioP1;P1;durP2;ratioP2;P2;SDS_P1;SDS_P2;PMS_P1;PMS_P2;Temp;Humidity;BMP_temperature;BMP_pressure;BME280_temperature;BME280_humidity;BME280_pressure;Samples;Min_cycle;Max_cycle;Signal;HPM_P1;HPM_P2
2021/12/18 00:01:59;;;;;;;6.30;4.10;;;;;;;3.33;100.00;99943.03;5016549;28;20150;-63
2021/12/18 00:04:43;;;;;;;9.00;4.75;;;;;;;3.27;100.00;99930.75;5052636;28;20083;-63
2021/12/18 00:07:28;;;;;;;10.73;4.88;;;;;;;3.34;100.00;99947.41;5047996;28;20048;-61
2021/12/18 00:10:12;;;;;;;8.80;4.85;;;;;;;3.34;100.00;99947.41;5062328;28;20522;-63
2021/12/18 00:12:57;;;;;;;6.70;4.50;;;;;;;3.33;100.00;99945.66;5067174;28;20050;-63
2021/12/18 00:15:41;;;;;;;10.43;4.72;;;;;;;3.12;100.00;99948.91;5067988;28;20186;-63
2021/12/18 00:18:26;;;;;;;7.72;4.65;;;;;;;3.05;100.00;99957.53;5052517;28;20127;-61
2021/12/18 00:21:14;;;;;;;10.05;4.88;;;;;;;3.11;100.00;99954.13;5067730;28;20119;-61
2021/12/18 00:23:58;;;;;;;10.73;5.70;;;;;;;2.94;100.00;99950.41;5050631;28;20520;-63
2021/12/18 00:26:42;;;;;;;12.98;6.90;;;;;;;2.99;100.00;99964.44;5066427;28;20106;-59
2021/12/18 00:29:27;;;;;;;12.43;6.25;;;;;;;3.14;100.00;99954.16;5066775;28;20052;-63
2021/12/18 00:32:12;;;;;;;11.65;5.97;;;;;;;3.33;100.00;99959.63;5067582;28;20114;-62
2021/12/18 00:34:57;;;;;;;10.18;5.68;;;;;;;3.48;100.00;99964.19;5043831;28;20120;-62
2021/12/18 00:37:42;;;;;;;11.48;5.50;;;;;;;3.58;100.00;99969.53;5034341;28;20091;-62
2021/12/18 00:40:30;;;;;;;9.55;5.32;;;;;;;3.52;100.00;99960.75;5049196;28;20102;-61
2021/12/18 00:43:24;;;;;;;7.75;4.15;;;;;;;3.47;100.00;99962.41;5045064;28;20051;-61
2021/12/18 00:46:08;;;;;;;9.75;5.35;;;;;;;3.34;100.00;99963.13;5048482;28;20208;-61
2021/12/18 00:48:53;;;;;;;8.43;4.78;;;;;;;3.40;100.00;99964.09;5046763;28;20486;-63
2021/12/18 00:51:37;;;;;;;8.40;4.20;;;;;;;3.54;100.00;99966.88;5048506;28;20048;-61
2021/12/18 00:54:22;;;;;;;8.73;4.50;;;;;;;3.66;100.00;99972.25;5034292;28;20202;-62
2021/12/18 00:57:06;;;;;;;6.78;4.40;;;;;;;3.84;100.00;99965.44;5048251;28;20651;-60
2021/12/18 00:59:53;;;;;;;9.85;4.40;;;;;;;3.87;100.00;99973.34;5036665;28;20055;-61
2021/12/18 01:02:43;;;;;;;8.70;5.20;;;;;;;3.95;100.00;99979.53;5048576;28;20470;-60
2021/12/18 01:05:32;;;;;;;10.88;5.57;;;;;;;4.03;100.00;99979.59;5050848;28;20148;-62
2021/12/18 01:08:18;;;;;;;9.57;5.75;;;;;;;3.95;100.00;99976.91;5065377;28;20056;-61
2021/12/18 01:11:30;;;;;;;10.48;5.30;;;;;;;3.93;100.00;99981.28;5036957;28;20413;-61
2021/12/18 01:23:09;;;;;;;9.27;5.75;;;;;;;3.76;100.00;99980.22;5064673;28;20109;-61
2021/12/18 01:25:56;;;;;;;13.75;5.72;;;;;;;3.80;100.00;99987.25;5065718;28;20440;-63
2021/12/18 01:28:41;;;;;;;9.43;6.32;;;;;;;3.88;100.00;99969.84;5054187;28;20136;-60
2021/12/18 01:31:25;;;;;;;8.18;4.97;;;;;;;3.87;100.00;99975.06;5053665;28;20494;-62
2021/12/18 01:34:09;;;;;;;11.90;5.60;;;;;;;3.83;100.00;99978.53;5067964;28;20078;-62
2021/12/18 01:36:54;;;;;;;7.18;4.50;;;;;;;3.95;100.00;99973.41;5061337;28;20194;-62
2021/12/18 01:39:38;;;;;;;12.63;5.18;;;;;;;4.03;100.00;99972.63;5051931;28;20059;-63
2021/12/18 01:54:21;;;;;;;7.43;4.13;;;;;;;4.00;100.00;99971.72;5050157;28;20047;-63
2021/12/18 01:57:06;;;;;;;8.27;4.05;;;;;;;3.96;100.00;99967.31;5049847;28;20052;-61
2021/12/18 01:59:51;;;;;;;8.40;4.43;;;;;;;3.75;100.00;99962.72;5045657;28;20095;-62
2021/12/18 02:02:36;;;;;;;7.85;4.05;;;;;;;3.93;100.00;99977.75;5049337;28;20070;-63
2021/12/18 02:05:22;;;;;;;5.90;3.97;;;;;;;3.98;100.00;99979.56;5045889;28;20388;-62
2021/12/18 02:08:09;;;;;;;6.00;3.92;;;;;;;3.97;100.00;99969.94;5016895;28;20056;-62
2021/12/18 02:20:23;;;;;;;10.52;4.32;;;;;;;3.81;100.00;99973.25;5047740;28;20101;-62
2021/12/18 02:23:08;;;;;;;7.28;4.20;;;;;;;3.95;100.00;99976.91;5047290;28;20048;-61
2021/12/18 02:25:52;;;;;;;7.90;4.57;;;;;;;3.88;100.00;99976.84;5053695;28;20054;-61
2021/12/18 02:28:38;;;;;;;10.23;5.82;;;;;;;3.89;100.00;99982.13;5066635;28;20071;-62
2021/12/18 02:31:23;;;;;;;10.60;5.40;;;;;;;4.02;100.00;99983.97;5070414;28;20538;-62
2021/12/18 02:34:18;;;;;;;10.38;5.93;;;;;;;3.94;100.00;99977.78;5031394;28;20075;-62
2021/12/18 02:37:06;;;;;;;11.75;5.93;;;;;;;3.88;100.00;99987.34;5047541;28;20060;-63
2021/12/18 02:43:04;;;;;;;10.35;5.82;;;;;;;3.92;100.00;99987.38;4987864;28;20057;-61
2021/12/18 02:45:53;;;;;;;10.00;5.35;;;;;;;3.83;100.00;99991.63;4987573;28;20103;-61
2021/12/18 02:48:41;;;;;;;10.48;5.28;;;;;;;3.86;100.00;100005.69;5004002;28;20080;-61
2021/12/18 02:51:25;;;;;;;8.57;5.10;;;;;;;3.86;100.00;99989.94;4996913;28;20089;-62
2021/12/18 02:54:10;;;;;;;7.10;4.28;;;;;;;4.01;100.00;100008.47;4991187;28;20513;-62
2021/12/18 02:56:54;;;;;;;9.63;5.45;;;;;;;4.03;100.00;100011.06;4995334;28;20501;-63
2021/12/18 02:59:50;;;;;;;9.30;5.35;;;;;;;4.10;100.00;100010.28;4991985;28;20100;-62
2021/12/18 03:02:41;;;;;;;10.00;5.55;;;;;;;3.83;100.00;100004.75;4984685;28;20101;-65
2021/12/18 03:05:33;;;;;;;9.88;5.28;;;;;;;3.91;100.00;99998.72;4992195;28;20551;-61
2021/12/18 03:08:32;;;;;;;7.82;4.65;;;;;;;3.89;100.00;99989.97;5000892;28;20053;-60
2021/12/18 03:26:16;;;;;;;8.85;4.22;;;;;;;4.01;100.00;99994.44;5053870;28;20051;-62
2021/12/18 03:29:00;;;;;;;5.72;3.60;;;;;;;4.12;100.00;99995.44;5063357;28;20075;-59
2021/12/18 03:31:45;;;;;;;7.22;4.50;;;;;;;4.09;100.00;99998.03;5065566;28;20078;-60
2021/12/18 03:34:30;;;;;;;5.45;3.60;;;;;;;3.86;100.00;99979.44;5044883;28;20059;-61
2021/12/18 03:37:14;;;;;;;7.33;4.10;;;;;;;3.90;100.00;99996.09;5059584;28;20106;-61
2021/12/18 03:39:59;;;;;;;6.18;3.70;;;;;;;3.89;100.00;99991.72;5047414;28;20302;-63
2021/12/18 03:42:46;;;;;;;8.45;3.67;;;;;;;3.85;100.00;99993.44;5063731;28;20180;-63
2021/12/18 03:45:30;;;;;;;5.75;3.40;;;;;;;3.85;100.00;100005.66;5045638;28;20090;-62
2021/12/18 03:48:15;;;;;;;6.63;3.70;;;;;;;3.89;100.00;100004.81;5032877;28;20111;-63
2021/12/18 03:50:59;;;;;;;9.90;4.65;;;;;;;3.89;100.00;100004.81;5055080;28;20056;-61
2021/12/18 03:53:44;;;;;;;8.50;4.32;;;;;;;3.76;100.00;100009.06;5041623;28;20118;-61
2021/12/18 03:56:29;;;;;;;8.18;4.28;;;;;;;3.85;100.00;100014.41;5033860;28;20499;-65
2021/12/18 03:59:14;;;;;;;8.02;4.13;;;;;;;3.87;100.00;100011.78;5049195;28;20183;-62
2021/12/18 04:01:58;;;;;;;7.30;3.83;;;;;;;3.93;100.00;100007.50;5054610;28;20115;-63
2021/12/18 04:04:42;;;;;;;7.75;4.35;;;;;;;3.96;100.00;100002.25;5067991;28;20090;-63
2021/12/18 04:07:27;;;;;;;7.80;3.95;;;;;;;4.03;100.00;100017.22;5064782;28;20114;-61
2021/12/18 04:10:15;;;;;;;8.70;4.32;;;;;;;4.00;100.00;100011.06;5047071;28;20082;-62
2021/12/18 04:13:00;;;;;;;8.40;4.63;;;;;;;4.01;100.00;100018.06;5060544;28;20182;-62
2021/12/18 04:15:45;;;;;;;8.45;4.40;;;;;;;4.00;100.00;100019.78;5042265;28;20051;-62
2021/12/18 04:18:29;;;;;;;9.23;5.30;;;;;;;3.96;100.00;100020.63;5044206;28;20051;-62
2021/12/18 04:21:15;;;;;;;9.90;4.90;;;;;;;3.72;100.00;100006.41;5042633;28;20043;-65
2021/12/18 04:24:03;;;;;;;8.45;5.03;;;;;;;3.73;100.00;100016.88;5048317;28;20044;-62
2021/12/18 04:26:48;;;;;;;9.85;4.63;;;;;;;3.82;100.00;100013.50;5056499;28;20109;-62
2021/12/18 04:29:32;;;;;;;7.13;3.47;;;;;;;3.81;100.00;100007.34;5060041;28;20063;-62
2021/12/18 04:32:16;;;;;;;6.57;3.15;;;;;;;3.73;100.00;100019.50;5056150;28;20106;-66
2021/12/18 04:35:01;;;;;;;5.93;2.25;;;;;;;3.73;100.00;100013.41;5024276;28;20083;-62
2021/12/18 04:37:45;;;;;;;4.57;2.60;;;;;;;3.70;100.00;100010.72;5059120;28;20063;-62
2021/12/18 04:40:30;;;;;;;5.72;2.80;;;;;;;3.73;100.00;100013.41;5066608;28;20063;-63
2021/12/18 04:43:16;;;;;;;4.25;2.28;;;;;;;3.72;100.00;100014.28;5058075;28;20056;-62
2021/12/18 04:46:01;;;;;;;5.18;2.78;;;;;;;3.76;100.00;100009.06;5049995;28;20623;-61
2021/12/18 04:48:46;;;;;;;5.50;2.83;;;;;;;3.73;100.00;100010.78;5050953;28;20067;-62
2021/12/18 04:51:30;;;;;;;4.60;2.85;;;;;;;3.81;100.00;100022.22;5051126;28;20849;-63
2021/12/18 04:54:15;;;;;;;3.92;2.80;;;;;;;3.74;100.00;100012.53;5067684;28;20075;-62
2021/12/18 04:57:00;;;;;;;5.05;2.60;;;;;;;3.51;100.00;100007.03;5067708;28;20554;-62
2021/12/18 04:59:45;;;;;;;6.53;3.17;;;;;;;3.25;100.00;100008.44;5038265;28;20471;-63
2021/12/18 05:02:42;;;;;;;5.90;2.80;;;;;;;3.25;100.00;100021.53;5047352;28;20136;-63
2021/12/18 05:05:26;;;;;;;5.68;2.70;;;;;;;3.31;100.00;100020.75;5052681;28;20755;-63
2021/12/18 05:08:11;;;;;;;6.97;2.97;;;;;;;3.25;100.00;100026.78;5052494;28;20628;-69
2021/12/18 05:10:55;;;;;;;4.05;2.15;;;;;;;3.11;100.00;100033.59;5048397;28;20044;-66
2021/12/18 05:13:40;;;;;;;3.65;2.20;;;;;;;3.04;100.00;100028.22;5041571;28;20057;-64
2021/12/18 05:16:24;;;;;;;3.60;1.92;;;;;;;3.16;100.00;100024.06;5046912;28;20094;-64
2021/12/18 05:19:10;;;;;;;3.85;1.77;;;;;;;2.94;100.00;100005.41;5058477;28;20103;-62
2021/12/18 05:21:54;;;;;;;3.03;1.73;;;;;;;2.89;100.00;100009.72;5059059;28;20051;-63
2021/12/18 05:24:39;;;;;;;2.92;1.35;;;;;;;2.81;100.00;100016.56;5066106;28;20055;-63
2021/12/18 05:27:23;;;;;;;4.17;1.80;;;;;;;2.88;100.00;100028.88;5046634;28;20538;-65
2021/12/18 05:30:10;;;;;;;2.33;1.70;;;;;;;3.03;100.00;100037.84;5042229;28;20044;-62
2021/12/18 05:32:55;;;;;;;3.63;1.50;;;;;;;3.03;100.00;100031.72;5051825;28;20402;-70
2021/12/18 05:35:39;;;;;;;5.07;2.23;;;;;;;3.03;100.00;100030.00;5050779;28;20716;-59
2021/12/18 05:38:24;;;;;;;3.28;1.70;;;;;;;2.77;100.00;100025.25;5047580;28;20445;-61
2021/12/18 05:41:09;;;;;;;3.88;2.00;;;;;;;2.68;100.00;100028.59;5076364;28;20098;-62
2021/12/18 05:43:55;;;;;;;2.75;1.65;;;;;;;2.60;100.00;100027.59;5058432;28;20150;-61
2021/12/18 05:46:39;;;;;;;3.65;1.90;;;;;;;2.78;100.00;100032.22;5032790;28;20580;-59
2021/12/18 05:49:23;;;;;;;6.32;2.08;;;;;;;2.77;100.00;100030.47;5064752;28;20162;-62
2021/12/18 05:52:08;;;;;;;3.85;1.90;;;;;;;2.64;100.00;100025.88;5056550;28;20143;-67
2021/12/18 05:54:53;;;;;;;4.15;1.88;;;;;;;2.76;100.00;100037.44;5040575;28;20052;-60
2021/12/18 05:57:37;;;;;;;5.00;1.80;;;;;;;2.73;100.00;100029.53;5057364;28;20086;-61
2021/12/18 06:00:23;;;;;;;3.38;2.13;;;;;;;2.61;100.00;100031.09;5053759;28;20121;-64
2021/12/18 06:03:07;;;;;;;5.20;2.20;;;;;;;2.62;100.00;100036.38;5052522;28;20083;-63
2021/12/18 06:05:52;;;;;;;5.30;2.13;;;;;;;2.74;100.00;100038.28;5041789;28;20575;-65
2021/12/18 06:08:38;;;;;;;6.20;2.65;;;;;;;2.78;100.00;100030.50;5039199;28;20067;-60
2021/12/18 06:11:26;;;;;;;6.05;2.78;;;;;;;2.60;100.00;100031.94;5029418;28;20075;-65
2021/12/18 06:14:11;;;;;;;7.70;2.67;;;;;;;2.72;100.00;100038.25;5051575;28;20059;-63
2021/12/18 06:16:56;;;;;;;7.20;3.33;;;;;;;2.85;100.00;100036.72;5035640;28;20561;-61
2021/12/18 06:19:40;;;;;;;7.18;3.60;;;;;;;2.82;100.00;100034.03;5066091;28;20075;-61
2021/12/18 06:22:25;;;;;;;7.95;3.97;;;;;;;2.77;100.00;100039.19;5062291;28;20159;-60
2021/12/18 06:25:10;;;;;;;8.18;3.88;;;;;;;2.78;100.00;100040.97;5034521;28;20178;-62
2021/12/18 06:27:55;;;;;;;10.40;4.68;;;;;;;2.78;100.00;100033.13;5062706;28;20408;-64
2021/12/18 06:30:39;;;;;;;12.10;4.35;;;;;;;2.75;100.00;100034.78;5058288;28;20559;-65
2021/12/18 06:33:24;;;;;;;10.82;4.40;;;;;;;2.84;100.00;100037.53;5057878;28;20094;-66
2021/12/18 06:36:08;;;;;;;11.75;5.85;;;;;;;2.88;100.00;100031.50;5050467;28;20111;-60
2021/12/18 06:38:53;;;;;;;12.13;5.00;;;;;;;2.87;100.00;100038.47;5057787;28;20099;-64
2021/12/18 06:41:38;;;;;;;12.95;6.32;;;;;;;2.84;100.00;100037.53;5053179;28;20174;-61
2021/12/18 06:44:22;;;;;;;11.35;5.60;;;;;;;2.93;100.00;100033.31;5065589;28;20420;-65
2021/12/18 06:47:07;;;;;;;11.18;4.93;;;;;;;2.93;100.00;100041.19;5062097;28;20079;-63
2021/12/18 06:49:51;;;;;;;13.05;5.40;;;;;;;2.90;100.00;100040.25;5055070;28;20122;-64
2021/12/18 06:52:37;;;;;;;10.98;5.20;;;;;;;2.69;100.00;100045.19;5060399;28;20160;-62
2021/12/18 06:55:21;;;;;;;11.05;4.40;;;;;;;2.51;100.00;100042.25;5044987;28;20059;-66
2021/12/18 06:58:06;;;;;;;9.13;3.75;;;;;;;2.49;100.00;100050.09;5062506;28;20051;-65
2021/12/18 07:00:53;;;;;;;11.27;3.72;;;;;;;2.31;100.00;100044.56;5049138;28;20059;-66
2021/12/18 07:03:37;;;;;;;9.40;3.42;;;;;;;2.15;100.00;100037.31;5061987;28;20168;-63
2021/12/18 07:06:26;;;;;;;9.45;3.65;;;;;;;2.02;100.00;100037.06;5048428;28;20530;-62
2021/12/18 07:09:10;;;;;;;8.43;3.15;;;;;;;2.14;100.00;100039.91;5059201;28;20051;-68
2021/12/18 07:11:55;;;;;;;5.78;3.20;;;;;;;2.14;100.00;100038.13;5060766;28;20117;-66
2021/12/18 07:14:40;;;;;;;7.15;3.13;;;;;;;2.11;100.00;100039.84;5030692;28;20052;-66
2021/12/18 07:17:25;;;;;;;6.97;3.40;;;;;;;2.15;100.00;100037.31;5061212;28;20051;-68
2021/12/18 07:20:10;;;;;;;8.05;3.38;;;;;;;2.40;100.00;100039.47;5062223;28;20063;-65
2021/12/18 07:22:55;;;;;;;7.80;3.40;;;;;;;2.43;100.00;100038.66;5058923;28;20531;-69
2021/12/18 07:25:40;;;;;;;6.57;3.10;;;;;;;2.52;100.00;100037.06;5043552;28;20056;-66
2021/12/18 07:28:24;;;;;;;8.65;3.00;;;;;;;2.38;100.00;100029.84;5062308;28;20604;-72
2021/12/18 07:31:09;;;;;;;7.78;3.00;;;;;;;2.44;100.00;100033.44;5032950;28;20123;-66
2021/12/18 07:33:54;;;;;;;8.50;3.83;;;;;;;2.10;100.00;100035.47;5060841;28;20052;-65
2021/12/18 07:36:39;;;;;;;7.28;2.90;;;;;;;2.06;100.00;100041.50;5063410;28;20613;-67
2021/12/18 07:39:24;;;;;;;7.68;3.58;;;;;;;2.03;100.00;100039.72;5047759;28;20063;-65
2021/12/18 07:42:08;;;;;;;6.93;3.13;;;;;;;1.98;100.00;100043.09;5064137;28;20056;-66
2021/12/18 07:44:53;;;;;;;6.57;2.70;;;;;;;2.09;100.00;100046.78;5049075;28;20082;-70
2021/12/18 07:47:38;;;;;;;8.10;2.70;;;;;;;2.17;100.00;100043.44;5061338;28;20094;-68
2021/12/18 07:50:23;;;;;;;7.28;3.13;;;;;;;2.28;100.00;100054.06;5061306;28;20087;-67
2021/12/18 07:53:07;;;;;;;6.70;2.63;;;;;;;2.33;100.00;100055.91;5065728;28;20105;-68
2021/12/18 07:55:52;;;;;;;4.22;2.40;;;;;;;2.40;100.00;100057.78;5064168;28;20599;-65
2021/12/18 07:58:39;;;;;;;5.10;2.35;;;;;;;2.20;100.00;100051.34;5060627;28;20094;-66
2021/12/18 08:01:24;;;;;;;4.15;1.85;;;;;;;2.36;100.00;100062.94;5047874;28;20095;-64
2021/12/18 08:04:09;;;;;;;2.72;1.70;;;;;;;2.29;100.00;100059.34;5044493;28;20452;-65
2021/12/18 08:06:53;;;;;;;4.55;1.67;;;;;;;2.16;100.00;100051.25;5045063;28;20044;-70
2021/12/18 08:09:38;;;;;;;3.20;1.60;;;;;;;2.19;100.00;100052.19;5039522;28;20056;-65
2021/12/18 08:12:22;;;;;;;2.80;1.60;;;;;;;2.00;100.00;100028.28;5057978;28;20527;-67
2021/12/18 08:15:07;;;;;;;4.22;1.95;;;;;;;1.98;100.00;100041.34;5061311;28;20099;-65
2021/12/18 08:17:52;;;;;;;3.72;2.10;;;;;;;2.27;100.00;100044.47;5063918;28;20052;-67
2021/12/18 08:20:38;;;;;;;3.92;2.22;;;;;;;2.38;100.00;100028.09;5060706;28;20488;-65
2021/12/18 08:23:22;;;;;;;4.47;2.42;;;;;;;2.60;100.00;100035.44;5055822;28;20062;-68
2021/12/18 08:26:07;;;;;;;4.85;2.35;;;;;;;2.62;100.00;100010.19;5060492;28;20536;-68
2021/12/18 08:28:51;;;;;;;6.60;3.00;;;;;;;2.79;100.00;100031.38;5061552;28;20056;-69
2021/12/18 08:31:36;;;;;;;8.23;3.38;;;;;;;2.98;100.00;100013.34;5048081;28;20055;-64
2021/12/18 08:34:22;;;;;;;5.88;2.72;;;;;;;3.19;100.00;100012.72;5050252;28;20113;-64
2021/12/18 08:37:06;;;;;;;4.30;2.33;;;;;;;3.26;100.00;100007.59;5050739;28;20063;-64
2021/12/18 08:39:51;;;;;;;4.72;2.70;;;;;;;3.25;100.00;99992.72;5062432;28;20210;-65
2021/12/18 08:42:35;;;;;;;6.20;3.70;;;;;;;3.41;100.00;100006.91;5068033;28;20048;-66
2021/12/18 08:45:20;;;;;;;6.22;3.60;;;;;;;3.40;100.00;99992.06;5030227;28;20567;-68
2021/12/18 08:48:05;;;;;;;5.10;2.78;;;;;;;3.46;100.00;99997.34;5058324;28;20170;-69
2021/12/18 08:50:52;;;;;;;7.90;2.80;;;;;;;3.64;100.00;99994.94;5033125;28;20051;-70
2021/12/18 08:53:37;;;;;;;6.00;2.60;;;;;;;3.83;100.00;99989.00;5035181;28;20048;-68
2021/12/18 08:56:21;;;;;;;5.85;3.15;;;;;;;3.90;100.00;99981.25;5061518;28;20149;-67
2021/12/18 08:59:06;;;;;;;7.60;3.83;;;;;;;3.96;100.00;99970.78;5061928;28;20104;-65
2021/12/18 09:01:50;;;;;;;6.18;3.40;;;;;;;3.72;100.00;99965.31;5066776;28;20098;-66
2021/12/18 09:04:36;;;;;;;4.78;2.65;;;;;;;3.94;100.00;99966.41;5057771;28;20048;-69
2021/12/18 09:07:22;;;;;;;7.20;3.83;;;;;;;4.05;100.00;99957.78;5065444;28;20181;-65
2021/12/18 09:10:09;;;;;;;5.32;2.90;;;;;;;4.18;100.00;99959.63;5034274;28;20408;-66
2021/12/18 09:12:54;;;;;;;5.95;3.50;;;;;;;4.14;100.00;99956.97;5061886;28;20047;-67
2021/12/18 09:15:39;;;;;;;;;;;;;;;4.13;100.00;99953.47;5048212;28;20244;-66
2021/12/18 09:18:24;;;;;;;8.07;4.30;;;;;;;4.24;100.00;99954.41;5063725;28;19930;-66
2021/12/18 09:21:08;;;;;;;8.05;3.83;;;;;;;4.37;100.00;99947.53;5065041;28;20048;-65
2021/12/18 09:23:53;;;;;;;7.15;4.07;;;;;;;4.44;100.00;99941.47;5047293;28;20055;-68
2021/12/18 09:26:40;;;;;;;5.40;3.03;;;;;;;4.09;100.00;99938.56;5044705;28;20105;-66
2021/12/18 09:29:25;;;;;;;7.18;3.28;;;;;;;3.92;100.00;99939.28;5047663;28;20047;-66
2021/12/18 09:32:09;;;;;;;7.27;2.90;;;;;;;3.97;100.00;99932.34;5045138;28;20102;-66
2021/12/18 09:34:53;;;;;;;8.73;2.80;;;;;;;4.03;100.00;99932.38;5065625;28;20321;-68
2021/12/18 09:37:39;;;;;;;5.72;2.63;;;;;;;4.00;100.00;99932.38;5035393;28;20051;-66
2021/12/18 09:40:23;;;;;;;4.63;2.70;;;;;;;3.94;100.00;99929.69;5061972;28;20137;-67
2021/12/18 09:43:08;;;;;;;;;;;;;;;3.87;100.00;99922.59;5047438;28;20182;-66
2021/12/18 09:45:53;;;;;;;5.28;2.65;;;;;;;3.38;100.00;99899.41;5066908;28;19974;-66
2021/12/18 09:48:40;;;;;;;4.90;2.22;;;;;;;3.63;100.00;99914.53;5061981;28;20570;-63
2021/12/18 09:51:27;;;;;;;7.22;2.90;;;;;;;3.50;100.00;99902.16;5045332;28;20048;-67
2021/12/18 09:54:12;;;;;;;5.35;2.15;;;;;;;3.40;100.00;99901.19;5035431;28;20463;-65
2021/12/18 09:56:57;;;;;;;6.57;2.03;;;;;;;3.23;100.00;99896.63;5048454;28;20250;-71
2021/12/18 09:59:41;;;;;;;4.30;2.20;;;;;;;2.88;100.00;99900.56;5062506;28;20064;-65
2021/12/18 10:02:26;;;;;;;6.63;2.10;;;;;;;3.02;100.00;99906.88;5062296;28;20048;-70
2021/12/18 10:05:27;;;;;;;3.72;2.33;;;;;;;2.96;100.00;99891.06;5034330;28;20098;-67
2021/12/18 10:08:16;;;;;;;5.75;2.38;;;;;;;2.83;100.00;99894.41;5062855;28;20094;-65
2021/12/18 10:11:05;;;;;;;6.72;2.97;;;;;;;2.86;100.00;99895.34;5060493;28;20090;-68
2021/12/18 10:13:58;;;;;;;6.18;2.47;;;;;;;2.87;100.00;99897.09;5050144;28;20083;-64
2021/12/18 10:16:52;;;;;;;7.35;3.55;;;;;;;2.83;100.00;99894.41;5048157;28;20429;-67
2021/12/18 10:19:41;;;;;;;9.88;4.38;;;;;;;2.80;100.00;99894.34;5047160;28;20427;-66
2021/12/18 10:22:26;;;;;;;7.97;3.90;;;;;;;2.80;100.00;99895.25;5061769;28;20063;-66
2021/12/18 10:25:12;;;;;;;6.22;3.45;;;;;;;2.78;100.00;99890.84;5031689;28;20534;-66
2021/12/18 10:28:14;;;;;;;8.80;3.90;;;;;;;2.93;100.00;99891.06;5061498;28;20055;-67
2021/12/18 10:30:58;;;;;;;5.55;3.47;;;;;;;2.81;100.00;99901.38;5059886;28;20067;-64
2021/12/18 10:33:43;;;;;;;3.33;1.60;;;;;;;2.62;100.00;99881.06;5046999;28;20047;-65
2021/12/18 10:36:27;;;;;;;2.00;1.45;;;;;;;2.42;100.00;99887.75;5056529;28;20070;-65
2021/12/18 10:39:19;;;;;;;2.30;1.30;;;;;;;2.37;100.00;99876.34;5062593;28;20055;-66
2021/12/18 10:42:35;;;;;;;1.88;1.30;;;;;;;2.50;100.00;99886.13;5045028;28;20091;-66
2021/12/18 10:45:25;;;;;;;4.05;1.80;;;;;;;2.55;100.00;99882.72;5061332;28;20105;-68
2021/12/18 10:48:16;;;;;;;5.35;1.42;;;;;;;2.54;100.00;99888.78;5061864;28;20055;-66
2021/12/18 10:51:04;;;;;;;3.25;1.60;;;;;;;2.37;100.00;99885.06;5046923;28;20046;-65
2021/12/18 10:53:50;;;;;;;4.07;1.83;;;;;;;2.34;100.00;99882.38;5036054;28;20047;-66
2021/12/18 10:56:45;;;;;;;3.88;1.85;;;;;;;2.38;100.00;99880.72;5032349;28;20093;-65
2021/12/18 10:59:36;;;;;;;6.28;1.85;;;;;;;2.41;100.00;99879.00;5030618;28;20056;-65
2021/12/18 11:02:21;;;;;;;5.63;1.65;;;;;;;2.53;100.00;99875.69;5061686;28;20535;-64
2021/12/18 11:05:16;;;;;;;8.15;2.40;;;;;;;2.78;100.00;99875.16;5062907;28;20052;-65
2021/12/18 11:08:10;;;;;;;7.13;2.60;;;;;;;2.79;100.00;99882.13;5059761;28;20049;-65
2021/12/18 11:14:24;;;;;;;4.63;1.92;;;;;;;2.86;100.00;99868.25;4973577;28;20049;-64
2021/12/18 11:17:13;;;;;;;3.72;2.00;;;;;;;2.83;100.00;99873.47;4999992;28;20179;-61
2021/12/18 11:19:58;;;;;;;4.00;2.10;;;;;;;2.81;100.00;99864.72;5002090;28;20106;-58
2021/12/18 11:22:42;;;;;;;;;;;;;;;2.96;100.00;99863.16;4999503;28;20100;-65
2021/12/18 11:25:27;;;;;;;5.40;2.33;;;;;;;3.01;100.00;99860.59;5002218;28;20012;-63
2021/12/18 11:28:14;;;;;;;3.83;2.40;;;;;;;2.99;100.00;99868.44;4996362;28;20156;-67
2021/12/18 11:30:59;;;;;;;3.30;2.10;;;;;;;3.00;100.00;99862.31;5000489;28;20137;-61
2021/12/18 11:33:43;;;;;;;5.90;2.15;;;;;;;2.96;100.00;99865.78;5001988;28;20120;-64
2021/12/18 11:36:29;;;;;;;4.80;2.55;;;;;;;2.77;100.00;99857.69;4997378;28;20068;-66
2021/12/18 11:39:17;;;;;;;6.25;2.53;;;;;;;2.94;100.00;99851.78;4973667;28;20068;-62
2021/12/18 11:42:03;;;;;;;8.43;2.47;;;;;;;3.07;100.00;99858.03;5000065;28;20148;-58
2021/12/18 11:44:57;;;;;;;5.20;2.10;;;;;;;3.02;100.00;99855.38;5000696;28;20131;-57
2021/12/18 11:47:53;;;;;;;3.10;2.05;;;;;;;2.94;100.00;99848.28;4995955;28;20057;-57
2021/12/18 11:50:39;;;;;;;3.85;2.22;;;;;;;3.06;100.00;99851.03;5006321;28;20055;-57
2021/12/18 11:53:35;;;;;;;5.78;2.28;;;;;;;2.94;100.00;99843.94;5061123;28;20182;-61
2021/12/18 11:56:22;;;;;;;3.28;2.13;;;;;;;2.73;100.00;99848.91;5043139;28;20047;-60
2021/12/18 11:59:07;;;;;;;4.45;2.10;;;;;;;2.71;100.00;99847.13;5053079;28;20079;-64
2021/12/18 12:01:51;;;;;;;3.03;1.77;;;;;;;2.75;100.00;99844.59;5045528;28;20506;-60
2021/12/18 12:04:58;;;;;;;2.13;1.40;;;;;;;2.98;100.00;99847.47;5050143;28;20094;-56
2021/12/18 12:07:45;;;;;;;2.20;1.40;;;;;;;2.97;100.00;99845.72;5050514;28;20083;-59
2021/12/18 12:11:03;;;;;;;3.88;2.20;;;;;;;3.04;100.00;99839.66;5047708;28;20486;-58
2021/12/18 12:13:52;;;;;;;4.15;1.77;;;;;;;3.04;100.00;99837.94;5064286;28;20142;-58
2021/12/18 12:17:03;;;;;;;3.10;1.60;;;;;;;2.82;100.00;99828.09;5054501;28;20089;-57
2021/12/18 12:20:00;;;;;;;3.63;1.70;;;;;;;2.92;100.00;99827.31;5065975;28;20051;-57
2021/12/18 12:22:52;;;;;;;3.70;1.65;;;;;;;3.00;100.00;99824.75;5065373;28;20907;-60
2021/12/18 12:25:50;;;;;;;2.70;1.42;;;;;;;2.98;100.00;99816.03;5050892;28;20550;-67
2021/12/18 12:28:51;;;;;;;2.72;1.30;;;;;;;2.87;100.00;99807.19;5060473;28;20048;-63
2021/12/18 12:31:37;;;;;;;3.03;0.90;;;;;;;2.78;100.00;99805.34;5037766;28;20521;-67
2021/12/18 12:34:30;;;;;;;2.45;1.10;;;;;;;2.89;100.00;99801.09;5038626;28;20087;-55
2021/12/18 12:37:38;;;;;;;4.65;1.65;;;;;;;3.12;100.00;99798.69;5036739;28;20102;-58
2021/12/18 12:40:28;;;;;;;3.88;1.40;;;;;;;2.92;100.00;99793.28;5049853;28;20071;-55
2021/12/18 12:43:25;;;;;;;5.97;1.30;;;;;;;2.63;100.00;99793.81;5063017;28;20401;-64
2021/12/18 12:46:16;;;;;;;3.90;1.52;;;;;;;2.74;100.00;99806.19;5066285;28;20059;-57
2021/12/18 12:49:03;;;;;;;4.85;1.70;;;;;;;2.72;100.00;99793.91;5065949;28;20138;-55
2021/12/18 12:51:57;;;;;;;3.83;1.42;;;;;;;2.68;100.00;99800.84;5065194;28;20106;-62
2021/12/18 12:55:00;;;;;;;3.05;1.55;;;;;;;2.57;100.00;99781.53;5065161;28;20055;-62
2021/12/18 12:57:50;;;;;;;2.28;1.20;;;;;;;2.57;100.00;99783.28;5062191;28;20067;-63
2021/12/18 13:00:38;;;;;;;2.55;1.35;;;;;;;2.69;100.00;99781.66;5048387;28;20099;-60
2021/12/18 13:03:26;;;;;;;4.25;1.80;;;;;;;2.65;100.00;99779.03;5064840;28;20075;-59
2021/12/18 13:06:24;;;;;;;2.65;1.60;;;;;;;2.47;100.00;99773.56;5046349;28;20051;-72
2021/12/18 13:09:08;;;;;;;3.55;1.80;;;;;;;2.39;100.00;99772.59;5037452;28;20071;-58
2021/12/18 13:12:04;;;;;;;6.05;1.50;;;;;;;2.56;100.00;99769.31;5035839;28;20818;-56
2021/12/18 13:14:52;;;;;;;4.03;1.83;;;;;;;2.60;100.00;99760.63;5062612;28;22027;-70
2021/12/18 13:17:37;;;;;;;4.57;1.70;;;;;;;2.80;100.00;99758.22;5053319;28;20048;-57
2021/12/18 13:20:21;;;;;;;3.90;1.98;;;;;;;2.81;100.00;99755.63;5062206;28;20051;-58
2021/12/18 13:23:07;;;;;;;3.15;1.80;;;;;;;2.88;100.00;99746.97;5037827;28;20052;-67
2021/12/18 13:25:54;;;;;;;3.65;1.70;;;;;;;2.83;100.00;99753.91;5054564;28;20187;-66
2021/12/18 13:29:11;;;;;;;2.88;1.70;;;;;;;2.85;100.00;99754.78;5054005;28;20063;-71
2021/12/18 13:31:58;;;;;;;;;;;;;;;2.56;100.00;99735.28;5064083;28;20098;-68
2021/12/18 13:34:42;;;;;;;3.08;1.60;;;;;;;2.62;100.00;99744.94;5066834;28;19927;-59
2021/12/18 13:37:26;;;;;;;4.18;1.60;;;;;;;2.67;100.00;99743.25;5045874;28;20066;-60
2021/12/18 13:40:16;;;;;;;4.60;2.25;;;;;;;2.68;100.00;99739.75;5065420;28;20074;-65
2021/12/18 13:43:22;;;;;;;4.05;1.70;;;;;;;2.71;100.00;99727.63;5052775;28;20102;-65
2021/12/18 13:46:10;;;;;;;5.72;2.35;;;;;;;2.53;100.00;99737.00;5051452;28;20109;-60
2021/12/18 13:48:55;;;;;;;4.43;1.95;;;;;;;2.53;100.00;99723.94;5029736;28;20065;-61
2021/12/18 13:51:39;;;;;;;5.45;2.25;;;;;;;2.54;100.00;99725.66;5065626;28;20509;-60
2021/12/18 13:54:23;;;;;;;4.97;2.55;;;;;;;2.57;100.00;99726.56;5055553;28;20114;-62